createdAt,value
2019-05-05T00:04:09.513Z,99.90
2019-05-05T00:14:25.443Z,99.90
2019-05-05T00:24:30.787Z,99.90
2019-05-05T00:34:36.271Z,99.90
2019-05-05T00:44:41.685Z,99.90
2019-05-05T00:54:46.987Z,99.90
2019-05-05T01:05:11.216Z,99.90
2019-05-05T01:15:16.594Z,99.90
2019-05-05T01:25:22.010Z,99.90
2019-05-05T01:35:27.466Z,99.90
2019-05-05T01:45:34.652Z,99.90
2019-05-05T01:55:39.787Z,99.90
2019-05-05T02:05:45.343Z,99.90
2019-05-05T02:15:50.575Z,99.90
2019-05-05T02:25:56.038Z,99.90
2019-05-05T02:36:01.327Z,99.90
2019-05-05T02:46:20.058Z,99.90
2019-05-05T02:56:30.982Z,99.90
2019-05-05T03:06:39.042Z,99.90
2019-05-05T03:16:44.393Z,99.90
2019-05-05T03:26:49.650Z,99.90
2019-05-05T03:36:55.355Z,99.90
2019-05-05T03:47:00.802Z,99.90
2019-05-05T03:57:09.058Z,99.90
2019-05-05T04:07:14.370Z,99.90
2019-05-05T04:17:38.650Z,99.90
2019-05-05T04:27:44.485Z,99.90
2019-05-05T04:37:49.797Z,99.90
2019-05-05T04:48:01.247Z,99.90
2019-05-05T04:58:06.483Z,99.90
2019-05-05T05:08:13.494Z,99.90
2019-05-05T05:18:18.758Z,99.90
2019-05-05T05:28:24.099Z,99.90
2019-05-05T05:38:29.423Z,99.90
2019-05-05T05:48:53.994Z,99.90
2019-05-05T05:59:00.253Z,99.90
2019-05-05T06:09:06.411Z,99.90
2019-05-05T06:19:13.618Z,99.90
2019-05-05T06:29:18.682Z,99.90
2019-05-05T06:39:24.243Z,99.90
2019-05-05T06:49:31.257Z,99.90
2019-05-05T06:59:37.728Z,99.90
2019-05-05T07:09:44.265Z,99.90
2019-05-05T07:19:50.808Z,99.90
2019-05-05T07:29:56.136Z,99.90
2019-05-05T07:40:01.528Z,99.90
2019-05-05T07:50:14.371Z,99.90
2019-05-05T08:00:14.919Z,99.90
2019-05-05T08:10:20.321Z,99.90
2019-05-05T08:20:31.287Z,99.90
2019-05-05T08:30:47.546Z,99.90
2019-05-05T08:40:54.379Z,99.90
2019-05-05T08:50:59.760Z,99.90
2019-05-05T09:01:05.088Z,99.90
2019-05-05T09:11:13.834Z,99.90
2019-05-05T09:21:18.619Z,99.90
2019-05-05T09:31:24.064Z,99.90
2019-05-05T09:41:29.309Z,99.90
2019-05-05T09:51:34.991Z,99.90
2019-05-05T10:01:40.638Z,99.90
2019-05-05T10:11:45.986Z,99.90
2019-05-05T10:21:52.055Z,98.10
2019-05-05T10:31:57.442Z,98.80
2019-05-05T10:42:04.060Z,98.30
2019-05-05T10:52:09.530Z,99.20
2019-05-05T11:02:14.934Z,97.70
2019-05-05T11:12:20.451Z,97.00
2019-05-05T11:22:25.900Z,97.10
2019-05-05T11:32:49.817Z,96.40
2019-05-05T11:42:55.337Z,94.50
2019-05-05T11:53:03.808Z,95.00
2019-05-05T12:03:08.575Z,94.20
2019-05-05T12:13:14.705Z,92.30
2019-05-05T12:23:20.323Z,92.70
2019-05-05T12:33:26.354Z,91.60
2019-05-05T12:43:33.872Z,91.30
2019-05-05T12:53:39.171Z,91.20
2019-05-05T13:03:45.598Z,90.70
2019-05-05T13:13:51.039Z,91.20
2019-05-05T13:24:08.348Z,89.80
2019-05-05T13:34:13.942Z,90.40
2019-05-05T13:44:30.071Z,91.20
2019-05-05T13:54:35.455Z,90.60
2019-05-05T14:04:40.784Z,90.30
2019-05-05T14:14:46.179Z,90.60
2019-05-05T14:24:56.747Z,89.80
2019-05-05T14:35:09.107Z,88.90
2019-05-05T14:45:15.425Z,88.00
2019-05-05T14:55:22.377Z,89.20
2019-05-05T15:06:03.872Z,87.80
2019-05-05T15:16:10.209Z,86.30
2019-05-05T15:26:15.447Z,86.20
2019-05-05T15:36:20.799Z,87.30
2019-05-05T15:46:26.243Z,89.10
2019-05-05T15:56:31.556Z,85.70
2019-05-05T16:06:37.038Z,86.70
2019-05-05T16:17:10.567Z,88.60
2019-05-05T16:27:21.643Z,88.60
2019-05-05T16:37:23.607Z,88.00
2019-05-05T16:47:28.924Z,86.30
2019-05-05T16:57:36.723Z,84.20
2019-05-05T17:07:43.132Z,84.30
2019-05-05T17:17:58.208Z,85.30
2019-05-05T17:28:04.505Z,85.70
2019-05-05T17:38:15.198Z,85.40
2019-05-05T17:48:28.978Z,85.50
2019-05-05T17:58:34.397Z,86.70
2019-05-05T18:08:45.679Z,87.90
2019-05-05T18:18:51.522Z,88.60
2019-05-05T18:28:56.883Z,89.20
2019-05-05T18:39:04.491Z,90.20
2019-05-05T18:49:11.592Z,90.60
2019-05-05T18:59:16.981Z,91.00
2019-05-05T19:09:24.722Z,91.40
2019-05-05T19:19:29.627Z,91.60
2019-05-05T19:29:34.886Z,92.50
2019-05-05T19:39:40.197Z,93.20
2019-05-05T19:49:53.038Z,93.50
2019-05-05T19:59:58.495Z,93.80
2019-05-05T20:10:04.218Z,93.40
2019-05-05T20:20:10.101Z,93.00
2019-05-05T20:30:15.602Z,92.70
2019-05-05T20:40:24.422Z,92.40
2019-05-05T20:50:34.875Z,92.50
2019-05-05T21:00:40.143Z,92.80
2019-05-05T21:10:45.506Z,92.60
2019-05-05T21:20:50.836Z,92.10
2019-05-05T21:30:56.142Z,92.10
2019-05-05T21:41:01.505Z,91.80
2019-05-05T21:51:17.811Z,91.60
2019-05-05T22:01:26.999Z,91.50
2019-05-05T22:11:31.040Z,91.30
2019-05-05T22:21:46.152Z,91.40
2019-05-05T22:31:51.604Z,90.70
2019-05-05T22:41:57.014Z,90.70
2019-05-05T22:52:03.842Z,90.80
2019-05-05T23:02:09.298Z,91.10
2019-05-05T23:12:14.628Z,91.50
2019-05-05T23:22:29.527Z,92.20
2019-05-05T23:32:34.790Z,92.80
2019-05-05T23:42:40.167Z,93.50
2019-05-05T23:52:45.602Z,94.00
